sensor_id;sensor_type;location;lat;lon;timestamp;P1;durP1;ratioP1;P2;durP2;ratioP2
19219;SDS011;9744;49.364;7.484;2022-07-04T00:00:13;3.35;;;0.50;;
19219;SDS011;9744;49.364;7.484;2022-07-04T00:02:42;3.85;;;0.55;;
19219;SDS011;9744;49.364;7.484;2022-07-04T00:05:12;0.63;;;0.40;;
19219;SDS011;9744;49.364;7.484;2022-07-04T00:07:40;2.13;;;0.50;;
19219;SDS011;9744;49.364;7.484;2022-07-04T00:10:10;2.10;;;0.45;;
19219;SDS011;9744;49.364;7.484;2022-07-04T00:12:38;0.93;;;0.57;;
19219;SDS011;9744;49.364;7.484;2022-07-04T00:15:07;2.28;;;0.60;;
19219;SDS011;9744;49.364;7.484;2022-07-04T00:17:35;0.93;;;0.40;;
19219;SDS011;9744;49.364;7.484;2022-07-04T00:20:04;2.47;;;0.57;;
19219;SDS011;9744;49.364;7.484;2022-07-04T00:22:33;11.95;;;0.50;;
19219;SDS011;9744;49.364;7.484;2022-07-04T00:25:01;0.85;;;0.52;;
19219;SDS011;9744;49.364;7.484;2022-07-04T00:27:28;3.47;;;0.32;;
19219;SDS011;9744;49.364;7.484;2022-07-04T00:29:56;2.05;;;0.60;;
19219;SDS011;9744;49.364;7.484;2022-07-04T00:32:25;2.35;;;0.40;;
19219;SDS011;9744;49.364;7.484;2022-07-04T00:34:52;0.95;;;0.50;;
19219;SDS011;9744;49.364;7.484;2022-07-04T00:37:19;1.50;;;0.60;;
19219;SDS011;9744;49.364;7.484;2022-07-04T00:39:46;1.33;;;0.50;;
19219;SDS011;9744;49.364;7.484;2022-07-04T00:42:14;4.95;;;0.52;;
19219;SDS011;9744;49.364;7.484;2022-07-04T00:44:42;0.77;;;0.40;;
19219;SDS011;9744;49.364;7.484;2022-07-04T00:47:09;1.30;;;0.50;;
19219;SDS011;9744;49.364;7.484;2022-07-04T00:49:38;1.58;;;0.50;;
19219;SDS011;9744;49.364;7.484;2022-07-04T00:52:06;0.75;;;0.40;;
19219;SDS011;9744;49.364;7.484;2022-07-04T00:54:34;1.23;;;0.40;;
19219;SDS011;9744;49.364;7.484;2022-07-04T00:57:01;4.47;;;0.88;;
19219;SDS011;9744;49.364;7.484;2022-07-04T00:59:29;4.45;;;0.63;;
19219;SDS011;9744;49.364;7.484;2022-07-04T01:01:57;4.10;;;0.50;;
19219;SDS011;9744;49.364;7.484;2022-07-04T01:04:24;3.17;;;0.50;;
19219;SDS011;9744;49.364;7.484;2022-07-04T01:06:53;1.85;;;0.70;;
19219;SDS011;9744;49.364;7.484;2022-07-04T01:09:21;2.17;;;0.70;;
19219;SDS011;9744;49.364;7.484;2022-07-04T01:11:48;1.75;;;0.50;;
19219;SDS011;9744;49.364;7.484;2022-07-04T01:14:16;1.17;;;0.43;;
19219;SDS011;9744;49.364;7.484;2022-07-04T01:16:43;2.45;;;0.60;;
19219;SDS011;9744;49.364;7.484;2022-07-04T01:19:10;2.10;;;0.65;;
19219;SDS011;9744;49.364;7.484;2022-07-04T01:21:39;2.60;;;0.55;;
19219;SDS011;9744;49.364;7.484;2022-07-04T01:24:06;4.28;;;0.60;;
19219;SDS011;9744;49.364;7.484;2022-07-04T01:26:36;1.05;;;0.57;;
19219;SDS011;9744;49.364;7.484;2022-07-04T01:29:03;1.35;;;0.40;;
19219;SDS011;9744;49.364;7.484;2022-07-04T01:31:31;2.78;;;0.60;;
19219;SDS011;9744;49.364;7.484;2022-07-04T01:33:58;1.00;;;0.40;;
19219;SDS011;9744;49.364;7.484;2022-07-04T01:36:25;2.03;;;0.45;;
19219;SDS011;9744;49.364;7.484;2022-07-04T01:38:54;0.93;;;0.52;;
19219;SDS011;9744;49.364;7.484;2022-07-04T01:41:23;2.15;;;0.45;;
19219;SDS011;9744;49.364;7.484;2022-07-04T01:43:50;0.85;;;0.70;;
19219;SDS011;9744;49.364;7.484;2022-07-04T01:46:17;1.45;;;0.55;;
19219;SDS011;9744;49.364;7.484;2022-07-04T01:48:44;1.17;;;0.57;;
19219;SDS011;9744;49.364;7.484;2022-07-04T01:51:12;0.63;;;0.40;;
19219;SDS011;9744;49.364;7.484;2022-07-04T01:53:39;1.70;;;0.60;;
19219;SDS011;9744;49.364;7.484;2022-07-04T01:56:08;1.05;;;0.50;;
19219;SDS011;9744;49.364;7.484;2022-07-04T01:58:35;0.88;;;0.50;;
19219;SDS011;9744;49.364;7.484;2022-07-04T02:01:02;1.75;;;0.50;;
19219;SDS011;9744;49.364;7.484;2022-07-04T02:03:47;0.60;;;0.50;;
19219;SDS011;9744;49.364;7.484;2022-07-04T02:06:14;0.88;;;0.55;;
19219;SDS011;9744;49.364;7.484;2022-07-04T02:08:41;1.45;;;0.60;;
19219;SDS011;9744;49.364;7.484;2022-07-04T02:11:27;2.65;;;0.70;;
19219;SDS011;9744;49.364;7.484;2022-07-04T02:14:14;1.58;;;0.50;;
19219;SDS011;9744;49.364;7.484;2022-07-04T02:16:40;3.03;;;0.60;;
19219;SDS011;9744;49.364;7.484;2022-07-04T02:19:08;1.83;;;0.60;;
19219;SDS011;9744;49.364;7.484;2022-07-04T02:21:35;3.33;;;0.60;;
19219;SDS011;9744;49.364;7.484;2022-07-04T02:24:03;5.88;;;0.52;;
19219;SDS011;9744;49.364;7.484;2022-07-04T02:26:32;2.55;;;0.70;;
19219;SDS011;9744;49.364;7.484;2022-07-04T02:28:59;0.43;;;0.40;;
19219;SDS011;9744;49.364;7.484;2022-07-04T02:31:26;2.42;;;0.70;;
19219;SDS011;9744;49.364;7.484;2022-07-04T02:33:53;0.90;;;0.50;;
19219;SDS011;9744;49.364;7.484;2022-07-04T02:36:21;1.38;;;0.60;;
19219;SDS011;9744;49.364;7.484;2022-07-04T02:38:48;1.10;;;0.40;;
19219;SDS011;9744;49.364;7.484;2022-07-04T02:41:15;2.80;;;0.93;;
19219;SDS011;9744;49.364;7.484;2022-07-04T02:43:44;1.60;;;0.60;;
19219;SDS011;9744;49.364;7.484;2022-07-04T02:46:11;2.78;;;0.60;;
19219;SDS011;9744;49.364;7.484;2022-07-04T02:48:38;4.97;;;0.77;;
19219;SDS011;9744;49.364;7.484;2022-07-04T02:51:06;1.30;;;0.60;;
19219;SDS011;9744;49.364;7.484;2022-07-04T02:53:33;2.30;;;0.70;;
19219;SDS011;9744;49.364;7.484;2022-07-04T02:56:00;1.95;;;0.55;;
19219;SDS011;9744;49.364;7.484;2022-07-04T02:58:29;6.70;;;0.52;;
19219;SDS011;9744;49.364;7.484;2022-07-04T03:00:58;1.58;;;0.55;;
19219;SDS011;9744;49.364;7.484;2022-07-04T03:03:25;3.55;;;0.90;;
19219;SDS011;9744;49.364;7.484;2022-07-04T03:05:52;0.93;;;0.55;;
19219;SDS011;9744;49.364;7.484;2022-07-04T03:08:20;1.27;;;0.70;;
19219;SDS011;9744;49.364;7.484;2022-07-04T03:10:48;2.10;;;0.50;;
19219;SDS011;9744;49.364;7.484;2022-07-04T03:13:16;1.98;;;0.40;;
19219;SDS011;9744;49.364;7.484;2022-07-04T03:15:44;2.40;;;0.80;;
19219;SDS011;9744;49.364;7.484;2022-07-04T03:18:13;2.47;;;0.50;;
19219;SDS011;9744;49.364;7.484;2022-07-04T03:20:40;1.63;;;0.80;;
19219;SDS011;9744;49.364;7.484;2022-07-04T03:23:07;1.17;;;0.63;;
19219;SDS011;9744;49.364;7.484;2022-07-04T03:25:35;2.08;;;0.60;;
19219;SDS011;9744;49.364;7.484;2022-07-04T03:28:02;0.70;;;0.40;;
19219;SDS011;9744;49.364;7.484;2022-07-04T03:30:30;0.73;;;0.50;;
19219;SDS011;9744;49.364;7.484;2022-07-04T03:32:57;2.88;;;0.77;;
19219;SDS011;9744;49.364;7.484;2022-07-04T03:35:26;1.70;;;0.60;;
19219;SDS011;9744;49.364;7.484;2022-07-04T03:37:54;1.63;;;0.60;;
19219;SDS011;9744;49.364;7.484;2022-07-04T03:40:21;1.40;;;0.65;;
19219;SDS011;9744;49.364;7.484;2022-07-04T03:42:49;0.95;;;0.50;;
19219;SDS011;9744;49.364;7.484;2022-07-04T03:45:17;0.50;;;0.50;;
19219;SDS011;9744;49.364;7.484;2022-07-04T03:47:44;1.83;;;0.80;;
19219;SDS011;9744;49.364;7.484;2022-07-04T03:50:11;1.52;;;0.82;;
19219;SDS011;9744;49.364;7.484;2022-07-04T03:52:40;2.88;;;0.80;;
19219;SDS011;9744;49.364;7.484;2022-07-04T03:55:08;2.00;;;0.80;;
19219;SDS011;9744;49.364;7.484;2022-07-04T03:57:35;1.63;;;1.15;;
19219;SDS011;9744;49.364;7.484;2022-07-04T04:00:03;3.58;;;1.90;;
19219;SDS011;9744;49.364;7.484;2022-07-04T04:02:37;3.83;;;1.80;;
19219;SDS011;9744;49.364;7.484;2022-07-04T04:05:06;3.17;;;2.05;;
19219;SDS011;9744;49.364;7.484;2022-07-04T04:07:52;2.70;;;1.67;;
19219;SDS011;9744;49.364;7.484;2022-07-04T04:10:21;7.40;;;4.57;;
19219;SDS011;9744;49.364;7.484;2022-07-04T04:12:48;5.47;;;3.55;;
19219;SDS011;9744;49.364;7.484;2022-07-04T04:15:15;6.35;;;3.80;;
19219;SDS011;9744;49.364;7.484;2022-07-04T04:17:43;7.15;;;4.25;;
19219;SDS011;9744;49.364;7.484;2022-07-04T04:20:10;8.20;;;3.90;;
19219;SDS011;9744;49.364;7.484;2022-07-04T04:22:37;6.18;;;3.33;;
19219;SDS011;9744;49.364;7.484;2022-07-04T04:25:07;4.97;;;3.40;;
19219;SDS011;9744;49.364;7.484;2022-07-04T04:27:35;6.05;;;3.42;;
19219;SDS011;9744;49.364;7.484;2022-07-04T04:30:02;4.43;;;3.10;;
19219;SDS011;9744;49.364;7.484;2022-07-04T04:32:30;4.43;;;2.65;;
19219;SDS011;9744;49.364;7.484;2022-07-04T04:34:57;3.42;;;2.22;;
19219;SDS011;9744;49.364;7.484;2022-07-04T04:37:25;4.60;;;2.05;;
19219;SDS011;9744;49.364;7.484;2022-07-04T04:39:52;4.70;;;2.03;;
19219;SDS011;9744;49.364;7.484;2022-07-04T04:42:21;3.40;;;1.70;;
19219;SDS011;9744;49.364;7.484;2022-07-04T04:44:48;2.85;;;1.30;;
19219;SDS011;9744;49.364;7.484;2022-07-04T04:47:15;2.92;;;1.40;;
19219;SDS011;9744;49.364;7.484;2022-07-04T04:49:43;8.50;;;1.65;;
19219;SDS011;9744;49.364;7.484;2022-07-04T04:52:10;2.65;;;1.25;;
19219;SDS011;9744;49.364;7.484;2022-07-04T04:54:37;3.97;;;1.50;;
19219;SDS011;9744;49.364;7.484;2022-07-04T04:57:05;1.65;;;1.27;;
19219;SDS011;9744;49.364;7.484;2022-07-04T04:59:33;2.45;;;1.25;;
19219;SDS011;9744;49.364;7.484;2022-07-04T05:02:01;0.68;;;0.55;;
19219;SDS011;9744;49.364;7.484;2022-07-04T05:04:29;2.67;;;1.02;;
19219;SDS011;9744;49.364;7.484;2022-07-04T05:06:56;2.47;;;0.73;;
19219;SDS011;9744;49.364;7.484;2022-07-04T05:09:23;1.85;;;0.80;;
19219;SDS011;9744;49.364;7.484;2022-07-04T05:11:51;2.58;;;0.98;;
19219;SDS011;9744;49.364;7.484;2022-07-04T05:14:18;0.88;;;0.70;;
19219;SDS011;9744;49.364;7.484;2022-07-04T05:16:47;1.63;;;0.70;;
19219;SDS011;9744;49.364;7.484;2022-07-04T05:19:14;2.60;;;0.80;;
19219;SDS011;9744;49.364;7.484;2022-07-04T05:21:42;2.28;;;0.60;;
19219;SDS011;9744;49.364;7.484;2022-07-04T05:24:09;1.45;;;0.60;;
19219;SDS011;9744;49.364;7.484;2022-07-04T05:26:36;3.80;;;0.80;;
19219;SDS011;9744;49.364;7.484;2022-07-04T05:29:04;1.27;;;0.60;;
19219;SDS011;9744;49.364;7.484;2022-07-04T05:31:31;1.05;;;0.70;;
19219;SDS011;9744;49.364;7.484;2022-07-04T05:33:59;2.28;;;0.60;;
19219;SDS011;9744;49.364;7.484;2022-07-04T05:36:27;3.33;;;0.57;;
19219;SDS011;9744;49.364;7.484;2022-07-04T05:38:55;0.63;;;0.60;;
19219;SDS011;9744;49.364;7.484;2022-07-04T05:41:22;0.95;;;0.70;;
19219;SDS011;9744;49.364;7.484;2022-07-04T05:43:50;1.60;;;0.60;;
19219;SDS011;9744;49.364;7.484;2022-07-04T05:46:17;1.85;;;0.73;;
19219;SDS011;9744;49.364;7.484;2022-07-04T05:48:44;12.50;;;8.32;;
19219;SDS011;9744;49.364;7.484;2022-07-04T05:51:13;3.40;;;0.98;;
19219;SDS011;9744;49.364;7.484;2022-07-04T05:53:40;2.90;;;1.10;;
19219;SDS011;9744;49.364;7.484;2022-07-04T05:56:07;2.95;;;1.42;;
19219;SDS011;9744;49.364;7.484;2022-07-04T05:58:35;3.42;;;1.73;;
19219;SDS011;9744;49.364;7.484;2022-07-04T06:01:02;2.83;;;1.27;;
19219;SDS011;9744;49.364;7.484;2022-07-04T06:03:29;3.65;;;1.90;;
19219;SDS011;9744;49.364;7.484;2022-07-04T06:05:56;4.95;;;1.83;;
19219;SDS011;9744;49.364;7.484;2022-07-04T06:08:25;4.95;;;1.70;;
19219;SDS011;9744;49.364;7.484;2022-07-04T06:10:52;2.10;;;1.23;;
19219;SDS011;9744;49.364;7.484;2022-07-04T06:13:19;10.57;;;1.85;;
19219;SDS011;9744;49.364;7.484;2022-07-04T06:15:47;18.88;;;2.10;;
19219;SDS011;9744;49.364;7.484;2022-07-04T06:18:15;11.68;;;1.80;;
19219;SDS011;9744;49.364;7.484;2022-07-04T06:20:42;7.22;;;1.85;;
19219;SDS011;9744;49.364;7.484;2022-07-04T06:23:09;4.60;;;1.20;;
19219;SDS011;9744;49.364;7.484;2022-07-04T06:25:38;2.63;;;0.77;;
19219;SDS011;9744;49.364;7.484;2022-07-04T06:28:05;3.45;;;0.85;;
19219;SDS011;9744;49.364;7.484;2022-07-04T06:30:32;2.03;;;0.77;;
19219;SDS011;9744;49.364;7.484;2022-07-04T06:33:00;2.45;;;0.90;;
19219;SDS011;9744;49.364;7.484;2022-07-04T06:35:29;1.83;;;0.50;;
19219;SDS011;9744;49.364;7.484;2022-07-04T06:38:11;2.95;;;0.90;;
19219;SDS011;9744;49.364;7.484;2022-07-04T06:40:41;5.20;;;0.73;;
19219;SDS011;9744;49.364;7.484;2022-07-04T06:43:09;1.17;;;0.45;;
19219;SDS011;9744;49.364;7.484;2022-07-04T06:45:36;3.20;;;0.70;;
19219;SDS011;9744;49.364;7.484;2022-07-04T06:48:04;4.95;;;1.05;;
19219;SDS011;9744;49.364;7.484;2022-07-04T06:50:32;2.63;;;0.73;;
19219;SDS011;9744;49.364;7.484;2022-07-04T06:53:00;3.10;;;0.60;;
19219;SDS011;9744;49.364;7.484;2022-07-04T06:55:29;2.83;;;1.20;;
19219;SDS011;9744;49.364;7.484;2022-07-04T06:57:58;5.10;;;2.45;;
19219;SDS011;9744;49.364;7.484;2022-07-04T07:00:25;4.03;;;2.17;;
19219;SDS011;9744;49.364;7.484;2022-07-04T07:02:55;6.57;;;2.75;;
19219;SDS011;9744;49.364;7.484;2022-07-04T07:05:23;5.55;;;2.60;;
19219;SDS011;9744;49.364;7.484;2022-07-04T07:07:51;6.97;;;2.15;;
19219;SDS011;9744;49.364;7.484;2022-07-04T07:10:18;3.05;;;2.10;;
19219;SDS011;9744;49.364;7.484;2022-07-04T07:12:46;1.88;;;1.38;;
19219;SDS011;9744;49.364;7.484;2022-07-04T07:15:14;6.13;;;1.10;;
19219;SDS011;9744;49.364;7.484;2022-07-04T07:17:45;4.18;;;1.20;;
19219;SDS011;9744;49.364;7.484;2022-07-04T07:20:12;4.93;;;1.10;;
19219;SDS011;9744;49.364;7.484;2022-07-04T07:22:39;3.20;;;0.95;;
19219;SDS011;9744;49.364;7.484;2022-07-04T07:25:08;1.60;;;0.63;;
19219;SDS011;9744;49.364;7.484;2022-07-04T07:27:36;3.55;;;0.88;;
19219;SDS011;9744;49.364;7.484;2022-07-04T07:30:04;3.05;;;1.00;;
19219;SDS011;9744;49.364;7.484;2022-07-04T07:32:33;2.47;;;0.70;;
19219;SDS011;9744;49.364;7.484;2022-07-04T07:35:00;9.63;;;4.38;;
19219;SDS011;9744;49.364;7.484;2022-07-04T07:37:28;2.83;;;1.13;;
19219;SDS011;9744;49.364;7.484;2022-07-04T07:39:55;4.10;;;2.13;;
19219;SDS011;9744;49.364;7.484;2022-07-04T07:42:23;6.03;;;3.40;;
19219;SDS011;9744;49.364;7.484;2022-07-04T07:44:51;2.90;;;1.42;;
19219;SDS011;9744;49.364;7.484;2022-07-04T07:47:18;3.97;;;2.55;;
19219;SDS011;9744;49.364;7.484;2022-07-04T07:49:47;8.05;;;2.63;;
19219;SDS011;9744;49.364;7.484;2022-07-04T07:52:14;4.00;;;2.63;;
19219;SDS011;9744;49.364;7.484;2022-07-04T07:54:42;5.63;;;2.90;;
19219;SDS011;9744;49.364;7.484;2022-07-04T07:57:10;5.72;;;3.35;;
19219;SDS011;9744;49.364;7.484;2022-07-04T07:59:37;4.93;;;3.22;;
19219;SDS011;9744;49.364;7.484;2022-07-04T08:02:04;5.40;;;2.65;;
19219;SDS011;9744;49.364;7.484;2022-07-04T08:04:32;3.15;;;2.35;;
19219;SDS011;9744;49.364;7.484;2022-07-04T08:07:03;4.82;;;2.00;;
19219;SDS011;9744;49.364;7.484;2022-07-04T08:09:31;3.20;;;1.60;;
19219;SDS011;9744;49.364;7.484;2022-07-04T08:11:59;2.75;;;1.30;;
19219;SDS011;9744;49.364;7.484;2022-07-04T08:14:27;2.45;;;1.60;;
19219;SDS011;9744;49.364;7.484;2022-07-04T08:16:54;4.60;;;1.67;;
19219;SDS011;9744;49.364;7.484;2022-07-04T08:19:22;3.58;;;1.20;;
19219;SDS011;9744;49.364;7.484;2022-07-04T08:21:50;1.30;;;0.98;;
19219;SDS011;9744;49.364;7.484;2022-07-04T08:24:19;3.55;;;1.00;;
19219;SDS011;9744;49.364;7.484;2022-07-04T08:26:47;1.00;;;0.90;;
19219;SDS011;9744;49.364;7.484;2022-07-04T08:29:14;2.33;;;0.60;;
19219;SDS011;9744;49.364;7.484;2022-07-04T08:31:45;4.13;;;1.00;;
19219;SDS011;9744;49.364;7.484;2022-07-04T08:34:13;1.83;;;0.68;;
19219;SDS011;9744;49.364;7.484;2022-07-04T08:36:40;3.70;;;0.68;;
19219;SDS011;9744;49.364;7.484;2022-07-04T08:39:08;3.15;;;0.50;;
19219;SDS011;9744;49.364;7.484;2022-07-04T08:41:37;1.60;;;0.68;;
19219;SDS011;9744;49.364;7.484;2022-07-04T08:44:06;0.60;;;0.40;;
19219;SDS011;9744;49.364;7.484;2022-07-04T08:46:37;4.05;;;0.57;;
19219;SDS011;9744;49.364;7.484;2022-07-04T08:49:08;0.80;;;0.30;;
19219;SDS011;9744;49.364;7.484;2022-07-04T08:51:41;1.63;;;0.40;;
19219;SDS011;9744;49.364;7.484;2022-07-04T08:54:14;2.78;;;0.50;;
19219;SDS011;9744;49.364;7.484;2022-07-04T08:57:03;2.85;;;0.40;;
19219;SDS011;9744;49.364;7.484;2022-07-04T08:59:49;1.25;;;0.30;;
19219;SDS011;9744;49.364;7.484;2022-07-04T09:02:16;1.92;;;0.30;;
19219;SDS011;9744;49.364;7.484;2022-07-04T09:04:46;1.75;;;0.73;;
19219;SDS011;9744;49.364;7.484;2022-07-04T09:07:15;3.58;;;0.50;;
19219;SDS011;9744;49.364;7.484;2022-07-04T09:09:43;2.38;;;0.60;;
19219;SDS011;9744;49.364;7.484;2022-07-04T09:12:13;2.75;;;0.70;;
19219;SDS011;9744;49.364;7.484;2022-07-04T09:14:40;3.55;;;0.95;;
19219;SDS011;9744;49.364;7.484;2022-07-04T09:17:08;1.33;;;0.50;;
19219;SDS011;9744;49.364;7.484;2022-07-04T09:19:35;3.63;;;1.75;;
19219;SDS011;9744;49.364;7.484;2022-07-04T09:22:03;2.33;;;1.77;;
19219;SDS011;9744;49.364;7.484;2022-07-04T09:24:46;2.83;;;0.65;;
19219;SDS011;9744;49.364;7.484;2022-07-04T09:27:29;1.63;;;0.70;;
19219;SDS011;9744;49.364;7.484;2022-07-04T09:29:58;1.17;;;0.75;;
19219;SDS011;9744;49.364;7.484;2022-07-04T09:32:36;8.20;;;0.70;;
19219;SDS011;9744;49.364;7.484;2022-07-04T09:35:04;2.13;;;0.38;;
19219;SDS011;9744;49.364;7.484;2022-07-04T09:37:33;4.68;;;0.80;;
19219;SDS011;9744;49.364;7.484;2022-07-04T09:40:02;2.08;;;0.60;;
19219;SDS011;9744;49.364;7.484;2022-07-04T09:42:36;3.53;;;0.50;;
19219;SDS011;9744;49.364;7.484;2022-07-04T09:45:05;2.13;;;0.40;;
19219;SDS011;9744;49.364;7.484;2022-07-04T09:47:34;1.40;;;0.40;;
19219;SDS011;9744;49.364;7.484;2022-07-04T09:50:03;1.42;;;0.25;;
19219;SDS011;9744;49.364;7.484;2022-07-04T09:52:31;1.02;;;0.40;;
19219;SDS011;9744;49.364;7.484;2022-07-04T09:54:59;1.45;;;0.40;;
19219;SDS011;9744;49.364;7.484;2022-07-04T09:57:30;0.40;;;0.30;;
19219;SDS011;9744;49.364;7.484;2022-07-04T10:00:01;1.65;;;0.47;;
19219;SDS011;9744;49.364;7.484;2022-07-04T10:02:43;2.03;;;0.70;;
19219;SDS011;9744;49.364;7.484;2022-07-04T10:05:10;2.38;;;0.75;;
19219;SDS011;9744;49.364;7.484;2022-07-04T10:07:38;3.25;;;0.77;;
19219;SDS011;9744;49.364;7.484;2022-07-04T10:13:00;1.98;;;0.85;;
19219;SDS011;9744;49.364;7.484;2022-07-04T10:15:30;1.77;;;0.40;;
19219;SDS011;9744;49.364;7.484;2022-07-04T10:17:58;0.40;;;0.40;;
19219;SDS011;9744;49.364;7.484;2022-07-04T10:20:25;2.60;;;0.50;;
19219;SDS011;9744;49.364;7.484;2022-07-04T10:22:53;1.20;;;0.20;;
19219;SDS011;9744;49.364;7.484;2022-07-04T10:25:20;3.38;;;0.43;;
19219;SDS011;9744;49.364;7.484;2022-07-04T10:27:48;3.55;;;0.50;;
19219;SDS011;9744;49.364;7.484;2022-07-04T10:30:19;0.82;;;0.45;;
19219;SDS011;9744;49.364;7.484;2022-07-04T10:32:56;1.20;;;0.45;;
19219;SDS011;9744;49.364;7.484;2022-07-04T10:38:16;1.38;;;0.65;;
19219;SDS011;9744;49.364;7.484;2022-07-04T10:40:45;0.73;;;0.35;;
19219;SDS011;9744;49.364;7.484;2022-07-04T10:46:29;0.40;;;0.30;;
19219;SDS011;9744;49.364;7.484;2022-07-04T10:49:02;1.35;;;0.40;;
19219;SDS011;9744;49.364;7.484;2022-07-04T10:51:41;1.95;;;0.40;;
19219;SDS011;9744;49.364;7.484;2022-07-04T10:54:12;1.70;;;0.32;;
19219;SDS011;9744;49.364;7.484;2022-07-04T10:56:41;0.80;;;0.43;;
19219;SDS011;9744;49.364;7.484;2022-07-04T10:59:17;1.30;;;0.50;;
19219;SDS011;9744;49.364;7.484;2022-07-04T11:01:46;1.20;;;0.35;;
19219;SDS011;9744;49.364;7.484;2022-07-04T11:07:22;3.22;;;0.50;;
19219;SDS011;9744;49.364;7.484;2022-07-04T11:10:21;2.50;;;0.38;;
19219;SDS011;9744;49.364;7.484;2022-07-04T11:13:07;2.70;;;0.50;;
19219;SDS011;9744;49.364;7.484;2022-07-04T11:15:59;1.40;;;0.50;;
19219;SDS011;9744;49.364;7.484;2022-07-04T11:18:28;1.23;;;0.38;;
19219;SDS011;9744;49.364;7.484;2022-07-04T11:20:56;1.25;;;0.50;;
19219;SDS011;9744;49.364;7.484;2022-07-04T11:23:23;3.13;;;0.55;;
19219;SDS011;9744;49.364;7.484;2022-07-04T11:25:52;4.05;;;0.50;;
19219;SDS011;9744;49.364;7.484;2022-07-04T11:28:22;3.90;;;0.57;;
19219;SDS011;9744;49.364;7.484;2022-07-04T11:30:51;1.65;;;0.30;;
19219;SDS011;9744;49.364;7.484;2022-07-04T11:33:19;2.00;;;0.43;;
19219;SDS011;9744;49.364;7.484;2022-07-04T11:38:45;0.63;;;0.40;;
19219;SDS011;9744;49.364;7.484;2022-07-04T11:41:20;1.08;;;0.40;;
19219;SDS011;9744;49.364;7.484;2022-07-04T11:44:09;1.58;;;0.50;;
19219;SDS011;9744;49.364;7.484;2022-07-04T11:47:05;1.30;;;0.40;;
19219;SDS011;9744;49.364;7.484;2022-07-04T11:49:35;3.50;;;0.52;;
19219;SDS011;9744;49.364;7.484;2022-07-04T11:52:02;2.38;;;0.45;;
19219;SDS011;9744;49.364;7.484;2022-07-04T11:54:30;2.38;;;0.50;;
19219;SDS011;9744;49.364;7.484;2022-07-04T11:57:15;2.60;;;0.40;;
19219;SDS011;9744;49.364;7.484;2022-07-04T11:59:51;1.83;;;0.40;;
19219;SDS011;9744;49.364;7.484;2022-07-04T12:02:20;1.35;;;0.45;;
19219;SDS011;9744;49.364;7.484;2022-07-04T12:04:47;3.78;;;0.40;;
19219;SDS011;9744;49.364;7.484;2022-07-04T12:07:15;5.13;;;0.63;;
19219;SDS011;9744;49.364;7.484;2022-07-04T12:09:45;1.85;;;0.40;;
19219;SDS011;9744;49.364;7.484;2022-07-04T12:12:15;2.60;;;0.40;;
19219;SDS011;9744;49.364;7.484;2022-07-04T12:14:59;3.28;;;0.30;;
19219;SDS011;9744;49.364;7.484;2022-07-04T12:17:31;1.33;;;0.30;;
19219;SDS011;9744;49.364;7.484;2022-07-04T12:20:00;2.92;;;0.40;;
19219;SDS011;9744;49.364;7.484;2022-07-04T12:22:31;3.28;;;0.30;;
19219;SDS011;9744;49.364;7.484;2022-07-04T12:25:00;2.38;;;0.38;;
19219;SDS011;9744;49.364;7.484;2022-07-04T12:27:31;3.90;;;0.50;;
19219;SDS011;9744;49.364;7.484;2022-07-04T12:29:58;1.50;;;0.32;;
19219;SDS011;9744;49.364;7.484;2022-07-04T12:32:48;2.25;;;0.40;;
19219;SDS011;9744;49.364;7.484;2022-07-04T12:35:36;1.90;;;0.40;;
19219;SDS011;9744;49.364;7.484;2022-07-04T12:38:10;1.95;;;0.30;;
19219;SDS011;9744;49.364;7.484;2022-07-04T12:40:50;2.83;;;0.30;;
19219;SDS011;9744;49.364;7.484;2022-07-04T12:43:23;1.40;;;0.30;;
19219;SDS011;9744;49.364;7.484;2022-07-04T12:45:52;2.05;;;0.50;;
19219;SDS011;9744;49.364;7.484;2022-07-04T12:48:22;3.85;;;0.50;;
19219;SDS011;9744;49.364;7.484;2022-07-04T12:50:51;0.45;;;0.30;;
19219;SDS011;9744;49.364;7.484;2022-07-04T12:53:19;1.08;;;0.30;;
19219;SDS011;9744;49.364;7.484;2022-07-04T12:55:47;1.48;;;0.30;;
19219;SDS011;9744;49.364;7.484;2022-07-04T12:58:15;1.65;;;0.40;;
19219;SDS011;9744;49.364;7.484;2022-07-04T13:00:44;1.35;;;0.52;;
19219;SDS011;9744;49.364;7.484;2022-07-04T13:03:11;0.63;;;0.38;;
19219;SDS011;9744;49.364;7.484;2022-07-04T13:05:38;2.70;;;0.50;;
19219;SDS011;9744;49.364;7.484;2022-07-04T13:08:06;2.30;;;0.30;;
19219;SDS011;9744;49.364;7.484;2022-07-04T13:10:33;1.25;;;0.55;;
19219;SDS011;9744;49.364;7.484;2022-07-04T13:13:01;0.88;;;0.30;;
19219;SDS011;9744;49.364;7.484;2022-07-04T13:15:28;1.40;;;0.30;;
19219;SDS011;9744;49.364;7.484;2022-07-04T13:17:57;1.00;;;0.30;;
19219;SDS011;9744;49.364;7.484;2022-07-04T13:20:24;0.65;;;0.30;;
19219;SDS011;9744;49.364;7.484;2022-07-04T13:22:52;0.60;;;0.20;;
19219;SDS011;9744;49.364;7.484;2022-07-04T13:25:20;0.30;;;0.20;;
19219;SDS011;9744;49.364;7.484;2022-07-04T13:27:48;0.98;;;0.28;;
19219;SDS011;9744;49.364;7.484;2022-07-04T13:30:15;1.02;;;0.28;;
19219;SDS011;9744;49.364;7.484;2022-07-04T13:32:43;2.78;;;0.30;;
19219;SDS011;9744;49.364;7.484;2022-07-04T13:35:11;1.30;;;0.30;;
19219;SDS011;9744;49.364;7.484;2022-07-04T13:37:38;1.95;;;0.30;;
19219;SDS011;9744;49.364;7.484;2022-07-04T13:40:06;0.73;;;0.20;;
19219;SDS011;9744;49.364;7.484;2022-07-04T13:42:35;1.15;;;0.50;;
19219;SDS011;9744;49.364;7.484;2022-07-04T13:45:19;3.17;;;0.30;;
19219;SDS011;9744;49.364;7.484;2022-07-04T13:47:47;5.03;;;0.57;;
19219;SDS011;9744;49.364;7.484;2022-07-04T13:50:15;4.03;;;0.50;;
19219;SDS011;9744;49.364;7.484;2022-07-04T13:52:43;1.05;;;0.30;;
19219;SDS011;9744;49.364;7.484;2022-07-04T13:55:10;0.98;;;0.22;;
19219;SDS011;9744;49.364;7.484;2022-07-04T13:57:37;1.95;;;0.30;;
19219;SDS011;9744;49.364;7.484;2022-07-04T14:00:05;0.43;;;0.30;;
19219;SDS011;9744;49.364;7.484;2022-07-04T14:02:34;1.65;;;0.20;;
19219;SDS011;9744;49.364;7.484;2022-07-04T14:05:02;0.73;;;0.20;;
19219;SDS011;9744;49.364;7.484;2022-07-04T14:07:31;2.58;;;0.30;;
19219;SDS011;9744;49.364;7.484;2022-07-04T14:09:59;0.30;;;0.20;;
19219;SDS011;9744;49.364;7.484;2022-07-04T14:12:26;0.80;;;0.25;;
19219;SDS011;9744;49.364;7.484;2022-07-04T14:14:53;0.55;;;0.20;;
19219;SDS011;9744;49.364;7.484;2022-07-04T14:17:20;2.58;;;0.22;;
19219;SDS011;9744;49.364;7.484;2022-07-04T14:19:48;1.27;;;0.40;;
19219;SDS011;9744;49.364;7.484;2022-07-04T14:22:15;2.05;;;0.40;;
19219;SDS011;9744;49.364;7.484;2022-07-04T14:24:43;1.90;;;0.75;;
19219;SDS011;9744;49.364;7.484;2022-07-04T14:27:10;2.28;;;0.20;;
19219;SDS011;9744;49.364;7.484;2022-07-04T14:29:38;1.75;;;0.30;;
19219;SDS011;9744;49.364;7.484;2022-07-04T14:32:06;0.55;;;0.17;;
19219;SDS011;9744;49.364;7.484;2022-07-04T14:34:34;2.17;;;0.30;;
19219;SDS011;9744;49.364;7.484;2022-07-04T14:37:01;1.98;;;0.20;;
19219;SDS011;9744;49.364;7.484;2022-07-04T14:39:28;0.68;;;0.20;;
19219;SDS011;9744;49.364;7.484;2022-07-04T14:41:56;2.00;;;0.30;;
19219;SDS011;9744;49.364;7.484;2022-07-04T14:44:24;2.67;;;0.20;;
19219;SDS011;9744;49.364;7.484;2022-07-04T14:46:51;0.70;;;0.20;;
19219;SDS011;9744;49.364;7.484;2022-07-04T14:49:18;2.50;;;0.28;;
19219;SDS011;9744;49.364;7.484;2022-07-04T14:51:46;0.85;;;0.30;;
19219;SDS011;9744;49.364;7.484;2022-07-04T14:54:13;1.02;;;0.20;;
19219;SDS011;9744;49.364;7.484;2022-07-04T14:56:40;3.05;;;0.13;;
19219;SDS011;9744;49.364;7.484;2022-07-04T14:59:09;1.15;;;0.55;;
19219;SDS011;9744;49.364;7.484;2022-07-04T15:01:36;2.30;;;0.20;;
19219;SDS011;9744;49.364;7.484;2022-07-04T15:04:03;1.02;;;0.20;;
19219;SDS011;9744;49.364;7.484;2022-07-04T15:06:31;2.78;;;0.20;;
19219;SDS011;9744;49.364;7.484;2022-07-04T15:08:58;1.52;;;0.25;;
19219;SDS011;9744;49.364;7.484;2022-07-04T15:11:25;6.43;;;0.20;;
19219;SDS011;9744;49.364;7.484;2022-07-04T15:13:53;0.45;;;0.20;;
19219;SDS011;9744;49.364;7.484;2022-07-04T15:16:21;1.70;;;0.40;;
19219;SDS011;9744;49.364;7.484;2022-07-04T15:18:48;1.55;;;0.30;;
19219;SDS011;9744;49.364;7.484;2022-07-04T15:21:16;0.80;;;0.20;;
19219;SDS011;9744;49.364;7.484;2022-07-04T15:24:00;0.40;;;0.20;;
19219;SDS011;9744;49.364;7.484;2022-07-04T15:26:40;1.50;;;0.25;;